createdAt,value
2018-03-26T00:00:16.678Z,47.83
2018-03-26T00:02:46.153Z,48.63
2018-03-26T00:05:15.622Z,48.47
2018-03-26T00:07:45.111Z,50.37
2018-03-26T00:10:14.579Z,48.37
2018-03-26T00:12:44.063Z,49.20
2018-03-26T00:15:13.533Z,47.67
2018-03-26T00:17:43.017Z,49.97
2018-03-26T00:20:12.503Z,48.70
2018-03-26T00:22:41.990Z,48.73
2018-03-26T00:25:11.458Z,49.30
2018-03-26T00:27:40.950Z,48.50
2018-03-26T00:30:10.397Z,48.40
2018-03-26T00:32:39.881Z,47.40
2018-03-26T00:35:09.353Z,49.37
2018-03-26T00:37:38.840Z,49.30
2018-03-26T00:40:08.297Z,48.13
2018-03-26T00:42:37.769Z,47.57
2018-03-26T00:45:07.245Z,48.50
2018-03-26T00:47:36.731Z,49.77
2018-03-26T00:50:06.206Z,50.97
2018-03-26T00:52:35.687Z,49.27
2018-03-26T00:55:05.178Z,50.97
2018-03-26T00:57:34.644Z,50.87
2018-03-26T01:00:04.119Z,51.00
2018-03-26T06:01:38.022Z,30.63
2018-03-26T06:04:07.514Z,33.10
2018-03-26T06:06:36.981Z,35.17
2018-03-26T06:09:06.458Z,38.30
2018-03-26T06:11:35.919Z,34.97
2018-03-26T06:14:05.402Z,35.43
2018-03-26T06:16:49.760Z,34.37
2018-03-26T06:19:19.254Z,34.67
2018-03-26T06:21:48.727Z,36.83
2018-03-26T06:24:18.217Z,33.47
2018-03-26T06:26:47.682Z,32.30
2018-03-26T06:29:17.169Z,34.03
2018-03-26T06:31:46.643Z,34.63
2018-03-26T06:34:16.144Z,33.93
2018-03-26T06:37:00.493Z,33.33
2018-03-26T06:39:29.985Z,32.93
2018-03-26T06:41:59.454Z,33.27
2018-03-26T06:44:28.929Z,30.07
2018-03-26T06:46:58.407Z,32.07
2018-03-26T06:49:27.881Z,32.53
2018-03-26T06:51:57.391Z,31.20
2018-03-26T06:54:26.865Z,32.47
2018-03-26T06:56:56.329Z,33.03
2018-03-26T06:59:25.852Z,33.50
2018-03-26T07:01:55.289Z,33.47
2018-03-26T07:04:24.785Z,33.73
2018-03-26T07:06:54.247Z,34.30
2018-03-26T07:09:23.704Z,33.67
2018-03-26T07:11:53.199Z,33.13
2018-03-26T07:14:22.651Z,33.27
2018-03-26T07:16:52.149Z,33.60
2018-03-26T07:19:21.631Z,32.03
2018-03-26T07:21:51.101Z,32.70
2018-03-26T07:24:20.583Z,31.50
2018-03-26T07:26:50.082Z,30.93
2018-03-26T07:29:19.542Z,29.67
2018-03-26T07:31:49.021Z,34.07
2018-03-26T07:34:18.498Z,31.00
2018-03-26T07:36:47.982Z,28.87
2018-03-26T07:39:17.446Z,30.47
2018-03-26T07:41:46.927Z,29.37
2018-03-26T07:44:16.401Z,26.17
2018-03-26T07:46:45.869Z,27.40
2018-03-26T07:49:15.348Z,22.63
2018-03-26T07:51:44.833Z,25.47
2018-03-26T07:54:14.301Z,26.27
2018-03-26T07:56:43.774Z,24.43
2018-03-26T07:59:13.241Z,25.63
2018-03-26T08:01:42.740Z,23.00
2018-03-26T08:04:13.363Z,23.87
2018-03-26T08:06:43.182Z,23.03
2018-03-26T08:09:12.706Z,15.20
2018-03-26T08:11:42.731Z,18.40
2018-03-26T08:14:12.290Z,19.30
2018-03-26T08:16:42.215Z,15.23
2018-03-26T08:19:12.286Z,19.47
2018-03-26T08:21:41.873Z,22.57
2018-03-26T08:24:11.411Z,25.43
2018-03-26T08:26:41.513Z,27.93
2018-03-26T08:29:11.477Z,27.27
2018-03-26T08:31:41.047Z,27.17
2018-03-26T08:34:10.524Z,26.27
2018-03-26T08:36:40.003Z,26.87
2018-03-26T08:39:09.481Z,26.33
2018-03-26T08:41:38.966Z,26.33
2018-03-26T08:44:08.429Z,28.03
2018-03-26T08:46:37.928Z,30.10
2018-03-26T08:49:07.890Z,30.30
2018-03-26T08:51:38.084Z,29.20
2018-03-26T08:54:08.087Z,29.80
2018-03-26T08:56:38.120Z,29.63
2018-03-26T08:59:08.293Z,29.90
2018-03-26T09:01:37.768Z,29.90
2018-03-26T09:04:07.328Z,29.23
2018-03-26T09:06:36.802Z,28.27
2018-03-26T09:09:06.271Z,27.07
2018-03-26T09:11:35.788Z,28.43
2018-03-26T09:14:05.248Z,29.27
2018-03-26T09:16:34.721Z,27.23
2018-03-26T09:19:05.057Z,28.23
2018-03-26T09:21:34.549Z,31.63
2018-03-26T09:24:04.044Z,32.77
2018-03-26T09:26:33.507Z,32.67
2018-03-26T09:29:03.026Z,34.57
2018-03-26T09:31:32.498Z,30.10
2018-03-26T09:34:10.045Z,30.73
2018-03-26T09:36:39.520Z,31.43
2018-03-26T09:39:08.984Z,28.20
2018-03-26T09:41:38.482Z,30.27
2018-03-26T09:44:07.950Z,26.97
2018-03-26T09:46:37.413Z,28.37
2018-03-26T09:49:06.905Z,30.37
2018-03-26T09:51:36.374Z,29.10
2018-03-26T09:54:05.846Z,27.40
2018-03-26T09:56:35.333Z,27.20
2018-03-26T09:59:04.801Z,24.23
2018-03-26T10:01:39.916Z,25.00
2018-03-26T10:04:09.396Z,31.13
2018-03-26T10:06:42.316Z,29.13
2018-03-26T10:09:11.811Z,27.47
2018-03-26T10:11:41.291Z,28.53
2018-03-26T10:14:10.812Z,22.60
2018-03-26T10:16:40.253Z,16.30
2018-03-26T10:19:09.730Z,15.67
2018-03-26T10:21:39.191Z,24.93
2018-03-26T10:24:08.690Z,29.90
2018-03-26T19:22:20.135Z,14.20
2018-03-26T19:24:49.597Z,14.57
2018-03-26T19:27:19.088Z,15.50
2018-03-26T19:29:48.560Z,18.80
2018-03-26T19:32:18.092Z,17.93
2018-03-26T19:34:47.550Z,17.10
2018-03-26T19:37:17.012Z,17.07
2018-03-26T19:39:48.225Z,17.70
2018-03-26T19:42:17.733Z,17.83
2018-03-26T19:44:47.260Z,17.67
2018-03-26T19:47:16.962Z,17.07
2018-03-26T19:49:46.420Z,17.03
2018-03-26T19:52:16.088Z,17.40
2018-03-26T19:54:45.561Z,18.53
2018-03-26T19:57:15.029Z,17.27
2018-03-26T19:59:44.497Z,17.57
2018-03-26T20:02:13.976Z,17.60
2018-03-26T20:04:43.522Z,16.57
2018-03-26T20:07:12.971Z,15.60
2018-03-26T20:09:42.471Z,15.60
2018-03-26T20:12:12.066Z,15.80
2018-03-26T20:14:41.532Z,14.03
2018-03-26T20:17:11.020Z,14.67
2018-03-26T20:19:40.490Z,13.90
2018-03-26T20:22:09.966Z,15.07
2018-03-26T20:24:39.441Z,14.67
2018-03-26T20:27:08.905Z,15.13
2018-03-26T20:29:38.487Z,13.90
2018-03-26T20:32:09.151Z,14.70
2018-03-26T20:34:38.666Z,14.10
2018-03-26T20:37:08.184Z,16.53
2018-03-26T20:39:37.653Z,15.77
2018-03-26T20:42:07.145Z,16.83
2018-03-26T20:44:36.620Z,15.80
2018-03-26T20:47:06.108Z,15.43
2018-03-26T20:49:35.573Z,15.23
2018-03-26T20:52:05.044Z,14.57
2018-03-26T20:54:34.521Z,15.77
2018-03-26T20:57:04.121Z,15.53
2018-03-26T20:59:33.671Z,14.27
2018-03-26T21:02:03.583Z,13.93
2018-03-26T21:04:33.086Z,14.33
2018-03-26T21:07:02.686Z,14.53
2018-03-26T21:09:32.171Z,13.43
2018-03-26T21:12:01.636Z,11.73
2018-03-26T21:14:31.179Z,11.67
2018-03-26T21:17:00.904Z,11.47
2018-03-26T21:19:30.561Z,11.30
2018-03-26T21:22:00.426Z,11.50
2018-03-26T21:24:31.089Z,11.83
2018-03-26T21:27:00.972Z,10.63
2018-03-26T21:29:30.676Z,11.13
2018-03-26T21:32:00.260Z,10.80
2018-03-26T21:34:30.101Z,11.50
2018-03-26T21:37:00.007Z,12.30
2018-03-26T21:39:29.568Z,12.17
2018-03-26T21:41:59.368Z,13.07
2018-03-26T21:44:28.840Z,13.53
2018-03-26T21:46:58.308Z,13.67
2018-03-26T21:49:27.792Z,14.17
2018-03-26T21:51:57.260Z,15.50
2018-03-26T21:54:26.728Z,16.03
2018-03-26T21:56:56.217Z,14.40
2018-03-26T21:59:25.811Z,14.00
2018-03-26T22:01:55.465Z,15.33
2018-03-26T22:04:25.057Z,15.80
2018-03-26T22:06:54.489Z,15.97
2018-03-26T22:09:23.966Z,16.00
2018-03-26T22:11:53.442Z,16.50
2018-03-26T22:14:22.908Z,16.50
2018-03-26T22:16:52.373Z,16.17
2018-03-26T22:19:22.780Z,18.03
2018-03-26T22:21:52.263Z,18.90
2018-03-26T22:24:21.724Z,17.90
2018-03-26T22:26:51.197Z,19.43
2018-03-26T22:29:20.660Z,19.77
2018-03-26T22:31:50.120Z,18.47
2018-03-26T22:34:19.612Z,19.90
2018-03-26T22:36:49.063Z,19.57
2018-03-26T22:39:18.553Z,18.90
2018-03-26T22:41:48.008Z,18.57
2018-03-26T22:44:17.494Z,19.50
2018-03-26T22:46:46.965Z,19.13
2018-03-26T22:49:16.456Z,18.43
2018-03-26T22:51:45.929Z,19.80
2018-03-26T22:54:15.400Z,18.10
2018-03-26T22:56:44.884Z,19.70
2018-03-26T22:59:14.338Z,20.43
2018-03-26T23:01:43.821Z,21.23
2018-03-26T23:04:13.279Z,20.23
2018-03-26T23:06:42.760Z,19.47
2018-03-26T23:09:12.220Z,20.90
2018-03-26T23:11:41.694Z,20.57
2018-03-26T23:14:11.165Z,21.73
2018-03-26T23:16:40.636Z,21.70
2018-03-26T23:19:10.092Z,20.73
2018-03-26T23:21:39.610Z,23.23
2018-03-26T23:24:09.077Z,23.57
2018-03-26T23:26:38.567Z,22.60
2018-03-26T23:29:08.017Z,22.87
2018-03-26T23:31:37.494Z,26.77
2018-03-26T23:34:07.687Z,28.77
2018-03-26T23:36:37.293Z,25.87
2018-03-26T23:39:06.760Z,31.27
2018-03-26T23:41:36.236Z,28.83
2018-03-26T23:44:05.694Z,32.13
2018-03-26T23:46:35.169Z,35.60
2018-03-26T23:49:04.635Z,34.80
2018-03-26T23:51:34.157Z,34.03
2018-03-26T23:54:03.634Z,39.13
2018-03-26T23:56:33.126Z,37.23
2018-03-26T23:59:02.600Z,38.20
